createdAt,value
2023-03-14T00:00:31.660Z,7.90
2023-03-14T00:03:41.294Z,8.27
2023-03-14T00:06:46.134Z,7.97
2023-03-14T00:09:56.327Z,7.93
2023-03-14T00:13:06.906Z,8.00
2023-03-14T00:16:20.488Z,7.20
2023-03-14T00:19:29.419Z,7.83
2023-03-14T00:22:33.048Z,7.30
2023-03-14T00:25:44.574Z,7.83
2023-03-14T00:28:55.709Z,6.93
2023-03-14T00:32:01.932Z,7.07
2023-03-14T00:35:13.119Z,6.80
2023-03-14T00:38:23.559Z,6.57
2023-03-14T00:41:31.915Z,6.70
2023-03-14T00:44:42.256Z,7.30
2023-03-14T00:47:49.413Z,6.70
2023-03-14T00:50:59.500Z,6.20
2023-03-14T00:54:10.544Z,10.63
2023-03-14T00:57:15.532Z,6.20
2023-03-14T01:00:22.876Z,6.60
2023-03-14T01:03:32.118Z,5.60
2023-03-14T01:06:44.505Z,5.80
2023-03-14T01:10:01.937Z,5.97
2023-03-14T01:13:10.098Z,6.47
2023-03-14T01:16:22.669Z,6.67
2023-03-14T01:19:31.619Z,6.57
2023-03-14T01:22:41.982Z,5.80
2023-03-14T01:25:49.501Z,7.33
2023-03-14T01:28:56.222Z,7.00
2023-03-14T01:32:05.233Z,6.77
2023-03-14T01:35:16.183Z,7.17
2023-03-14T01:38:22.357Z,7.43
2023-03-14T01:41:40.899Z,7.03
2023-03-14T01:45:00.979Z,7.20
2023-03-14T01:48:09.539Z,8.03
2023-03-14T01:51:26.152Z,7.70
2023-03-14T01:54:38.229Z,8.03
2023-03-14T01:57:56.768Z,7.93
2023-03-14T02:01:07.644Z,8.47
2023-03-14T02:04:16.649Z,7.83
2023-03-14T02:07:24.945Z,7.60
2023-03-14T02:10:39.169Z,8.27
2023-03-14T02:13:50.578Z,9.27
2023-03-14T02:16:57.804Z,8.17
2023-03-14T02:20:26.672Z,8.07
2023-03-14T02:23:39.222Z,8.10
2023-03-14T02:26:48.756Z,7.80
2023-03-14T02:29:56.842Z,8.93
2023-03-14T02:33:06.261Z,8.27
2023-03-14T02:36:19.333Z,8.30
2023-03-14T02:39:33.321Z,8.57
2023-03-14T02:42:44.912Z,8.60
2023-03-14T02:45:56.501Z,9.37
2023-03-14T02:49:11.683Z,8.03
2023-03-14T02:52:17.670Z,8.63
2023-03-14T02:55:23.361Z,8.03
2023-03-14T02:58:31.053Z,7.40
2023-03-14T03:01:44.015Z,8.17
2023-03-14T03:04:52.978Z,8.63
2023-03-14T03:08:04.614Z,7.60
2023-03-14T03:11:14.037Z,8.23
2023-03-14T03:14:24.761Z,7.90
2023-03-14T03:17:31.605Z,8.00
2023-03-14T03:20:36.218Z,8.10
2023-03-14T03:23:51.000Z,7.40
2023-03-14T03:26:56.977Z,8.37
2023-03-14T03:30:00.615Z,8.37
2023-03-14T03:33:06.636Z,8.00
2023-03-14T03:36:12.560Z,7.17
2023-03-14T03:39:18.752Z,7.40
2023-03-14T03:42:30.021Z,8.07
2023-03-14T03:45:42.381Z,8.07
2023-03-14T03:48:54.783Z,7.10
2023-03-14T03:52:08.008Z,7.40
2023-03-14T03:55:18.548Z,6.50
2023-03-14T03:58:29.361Z,7.00
2023-03-14T04:01:39.463Z,7.73
2023-03-14T04:04:51.264Z,7.10
2023-03-14T04:07:57.027Z,7.10
2023-03-14T04:11:06.397Z,6.70
2023-03-14T04:14:11.803Z,6.30
2023-03-14T04:17:21.603Z,6.80
2023-03-14T04:20:34.610Z,7.60
2023-03-14T04:23:45.274Z,7.33
2023-03-14T04:26:54.399Z,6.50
2023-03-14T04:30:01.252Z,6.50
2023-03-14T04:33:13.753Z,6.53
2023-03-14T04:36:25.865Z,7.00
2023-03-14T04:39:34.382Z,7.10
2023-03-14T04:42:39.786Z,6.83
2023-03-14T04:45:49.956Z,6.40
2023-03-14T04:48:54.558Z,7.30
2023-03-14T04:52:00.256Z,13.70
2023-03-14T04:55:06.940Z,8.27
2023-03-14T04:58:15.097Z,7.00
2023-03-14T05:01:22.015Z,6.53
2023-03-14T05:04:26.206Z,6.97
2023-03-14T05:07:32.172Z,6.30
2023-03-14T05:10:41.291Z,6.10
2023-03-14T05:13:48.914Z,6.43
2023-03-14T05:16:58.152Z,6.60
2023-03-14T05:20:11.968Z,6.77
2023-03-14T05:23:25.746Z,6.33
2023-03-14T05:26:30.755Z,6.30
2023-03-14T05:29:42.687Z,6.27
2023-03-14T05:32:56.118Z,7.13
2023-03-14T05:36:02.586Z,5.57
2023-03-14T05:39:14.373Z,5.73
2023-03-14T05:42:24.894Z,6.40
2023-03-14T05:45:34.663Z,6.77
2023-03-14T05:48:44.849Z,6.87
2023-03-14T05:51:53.679Z,8.30
2023-03-14T05:55:06.154Z,8.73
2023-03-14T05:58:16.559Z,9.53
2023-03-14T06:01:25.753Z,10.03
2023-03-14T06:04:32.526Z,9.90
2023-03-14T06:07:42.202Z,10.70
2023-03-14T06:10:52.557Z,11.70
2023-03-14T06:14:01.750Z,12.80
2023-03-14T06:17:10.137Z,13.07
2023-03-14T06:20:24.986Z,12.47
2023-03-14T06:23:36.293Z,12.63
2023-03-14T06:26:52.608Z,13.80
2023-03-14T06:30:05.447Z,13.37
2023-03-14T06:33:10.926Z,12.20
2023-03-14T06:36:22.566Z,13.03
2023-03-14T06:39:34.283Z,13.77
2023-03-14T06:42:48.276Z,12.30
2023-03-14T06:45:57.315Z,13.00
2023-03-14T06:49:08.513Z,11.70
2023-03-14T06:52:21.703Z,12.43
2023-03-14T06:55:29.857Z,12.40
2023-03-14T06:58:42.622Z,11.93
2023-03-14T07:01:48.602Z,13.57
2023-03-14T07:05:02.844Z,13.93
2023-03-14T07:08:13.967Z,13.60
2023-03-14T07:11:24.029Z,14.40
2023-03-14T07:14:35.763Z,15.07
2023-03-14T07:17:44.249Z,15.67
2023-03-14T07:20:56.662Z,15.53
2023-03-14T07:24:08.234Z,17.53
2023-03-14T07:27:14.484Z,17.37
2023-03-14T07:30:28.372Z,16.07
2023-03-14T07:33:45.532Z,15.27
2023-03-14T07:36:56.514Z,15.80
2023-03-14T07:40:10.661Z,17.53
2023-03-14T07:43:22.788Z,17.20
2023-03-14T07:46:36.061Z,13.67
2023-03-14T07:49:45.408Z,14.87
2023-03-14T07:52:53.882Z,16.00
2023-03-14T07:56:04.472Z,15.20
2023-03-14T07:59:14.211Z,15.40
2023-03-14T08:02:26.556Z,16.77
2023-03-14T08:05:39.867Z,17.47
2023-03-14T08:08:50.056Z,15.47
2023-03-14T08:12:05.190Z,16.40
2023-03-14T08:15:16.873Z,16.80
2023-03-14T08:18:27.885Z,17.27
2023-03-14T08:21:38.979Z,17.47
2023-03-14T08:24:47.530Z,17.20
2023-03-14T08:27:55.168Z,16.43
2023-03-14T08:31:08.356Z,15.90
2023-03-14T08:34:20.966Z,16.90
2023-03-14T08:37:29.557Z,16.63
2023-03-14T08:40:42.391Z,17.73
2023-03-14T08:43:47.012Z,16.30
2023-03-14T08:46:58.324Z,15.37
2023-03-14T08:50:09.519Z,17.30
2023-03-14T08:53:22.289Z,16.23
2023-03-14T08:56:30.682Z,15.93
2023-03-14T08:59:40.928Z,16.47
2023-03-14T09:02:52.870Z,16.70
2023-03-14T09:06:06.671Z,15.43
2023-03-14T09:09:17.119Z,15.17
2023-03-14T09:12:36.580Z,16.20
2023-03-14T09:15:49.469Z,16.47
2023-03-14T09:19:04.535Z,16.87
2023-03-14T09:22:14.554Z,15.23
2023-03-14T09:25:24.657Z,14.47
2023-03-14T09:28:35.566Z,15.00
2023-03-14T09:31:43.438Z,15.43
2023-03-14T09:34:54.504Z,14.97
2023-03-14T09:38:10.923Z,14.00
2023-03-14T09:41:20.734Z,13.80
2023-03-14T09:44:33.112Z,13.77
2023-03-14T09:47:56.514Z,14.63
2023-03-14T09:51:12.389Z,14.13
2023-03-14T09:54:39.636Z,14.57
2023-03-14T09:57:50.181Z,14.80
2023-03-14T10:00:59.658Z,13.13
2023-03-14T10:04:15.191Z,13.03
2023-03-14T10:07:25.211Z,13.30
2023-03-14T10:10:36.201Z,12.70
2023-03-14T10:13:56.785Z,13.00
2023-03-14T10:17:11.349Z,11.43
2023-03-14T10:20:34.122Z,13.10
2023-03-14T10:23:39.936Z,12.80
2023-03-14T10:26:45.425Z,12.27
2023-03-14T10:29:59.528Z,12.77
2023-03-14T10:33:11.140Z,12.07
2023-03-14T10:36:23.972Z,12.13
2023-03-14T10:39:44.926Z,11.83
2023-03-14T10:42:53.017Z,11.47
2023-03-14T10:46:07.123Z,10.60
2023-03-14T10:49:25.455Z,11.63
2023-03-14T10:53:01.352Z,11.90
2023-03-14T10:55:59.789Z,11.27
2023-03-14T10:59:06.866Z,11.00
2023-03-14T11:02:40.859Z,9.90
2023-03-14T11:05:49.199Z,10.13
2023-03-14T11:09:02.975Z,9.90
2023-03-14T11:12:38.856Z,10.10
2023-03-14T11:16:01.074Z,10.30
2023-03-14T11:19:35.537Z,10.33
2023-03-14T11:22:46.783Z,9.20
2023-03-14T11:26:03.509Z,10.00
2023-03-14T11:29:24.189Z,8.97
2023-03-14T11:32:45.531Z,8.80
2023-03-14T11:35:59.803Z,9.70
2023-03-14T11:39:16.902Z,9.60
2023-03-14T11:42:30.431Z,9.20
2023-03-14T11:45:42.408Z,8.70
2023-03-14T11:49:06.413Z,9.00
2023-03-14T11:52:23.677Z,8.77
2023-03-14T11:55:39.306Z,9.30
2023-03-14T11:58:57.571Z,8.60
2023-03-14T12:02:09.862Z,8.80
2023-03-14T12:05:39.945Z,8.20
2023-03-14T12:08:52.945Z,8.60
2023-03-14T12:12:03.449Z,8.73
2023-03-14T12:15:28.972Z,7.50
2023-03-14T12:18:43.555Z,7.80
2023-03-14T12:21:57.492Z,7.97
2023-03-14T12:25:23.381Z,8.77
2023-03-14T12:28:40.173Z,8.07
2023-03-14T12:31:53.709Z,7.80
2023-03-14T12:35:14.540Z,7.37
2023-03-14T12:38:35.655Z,7.93
2023-03-14T12:41:47.611Z,7.13
2023-03-14T12:44:57.623Z,8.07
2023-03-14T12:48:24.629Z,7.43
2023-03-14T12:51:39.386Z,7.70
2023-03-14T12:54:56.704Z,7.47
2023-03-14T12:58:13.454Z,7.93
2023-03-14T13:01:24.643Z,7.00
2023-03-14T13:04:40.485Z,6.83
2023-03-14T13:08:12.888Z,6.60
2023-03-14T13:11:23.737Z,6.67
2023-03-14T13:14:32.911Z,6.80
2023-03-14T13:17:39.163Z,6.60
2023-03-14T13:20:50.965Z,7.50
2023-03-14T13:24:04.939Z,7.50
2023-03-14T13:27:23.059Z,7.40
2023-03-14T13:30:32.134Z,6.97
2023-03-14T13:33:38.990Z,7.13
2023-03-14T13:36:43.640Z,6.70
2023-03-14T13:39:52.497Z,7.03
2023-03-14T13:43:15.364Z,6.50
2023-03-14T13:46:23.271Z,6.13
2023-03-14T13:49:30.270Z,6.87
2023-03-14T13:52:39.301Z,6.63
2023-03-14T13:55:43.448Z,6.57
2023-03-14T13:58:49.162Z,6.37
2023-03-14T14:01:55.104Z,6.70
2023-03-14T14:04:59.350Z,6.27
2023-03-14T14:08:07.290Z,6.43
2023-03-14T14:11:32.689Z,5.90
2023-03-14T14:14:46.964Z,5.87
2023-03-14T14:17:55.040Z,5.97
2023-03-14T14:21:01.799Z,6.40
2023-03-14T14:24:08.322Z,5.50
2023-03-14T14:27:16.778Z,5.80
2023-03-14T14:30:35.648Z,7.43
2023-03-14T14:33:44.070Z,6.13
2023-03-14T14:36:50.994Z,5.60
2023-03-14T14:39:59.942Z,5.70
2023-03-14T14:43:10.011Z,5.70
2023-03-14T14:46:26.263Z,5.00
2023-03-14T14:49:39.307Z,6.30
2023-03-14T14:52:47.579Z,6.43
2023-03-14T14:55:57.479Z,5.60
2023-03-14T14:59:09.184Z,5.90
2023-03-14T15:02:39.457Z,5.17
2023-03-14T15:05:50.356Z,5.67
2023-03-14T15:09:04.432Z,5.07
2023-03-14T15:12:10.930Z,6.10
2023-03-14T15:15:22.350Z,6.00
2023-03-14T15:18:34.657Z,5.70
2023-03-14T15:21:43.028Z,5.57
2023-03-14T15:24:53.409Z,5.13
2023-03-14T15:27:59.789Z,5.60
2023-03-14T15:31:04.438Z,5.77
2023-03-14T15:34:12.117Z,5.67
2023-03-14T15:37:20.751Z,5.00
2023-03-14T15:40:30.546Z,5.00
2023-03-14T15:43:38.318Z,5.83
2023-03-14T15:46:43.550Z,6.63
2023-03-14T15:49:50.083Z,3.80
2023-03-14T15:52:57.641Z,3.40
2023-03-14T15:56:09.727Z,3.67
2023-03-14T15:59:23.491Z,3.00
2023-03-14T16:02:34.352Z,3.20
2023-03-14T16:05:43.280Z,3.30
2023-03-14T16:08:49.069Z,2.87
2023-03-14T16:12:02.798Z,4.40
2023-03-14T16:15:12.409Z,2.90
2023-03-14T16:18:21.914Z,3.10
2023-03-14T16:21:33.503Z,3.30
2023-03-14T16:24:43.639Z,3.30
2023-03-14T16:27:55.608Z,3.73
2023-03-14T16:31:12.190Z,4.70
2023-03-14T16:34:17.346Z,5.17
2023-03-14T16:37:23.002Z,6.43
2023-03-14T16:40:29.191Z,6.27
2023-03-14T16:43:39.114Z,7.77
2023-03-14T16:46:45.426Z,5.80
2023-03-14T16:49:52.701Z,5.13
2023-03-14T16:53:02.735Z,5.30
2023-03-14T16:56:12.279Z,9.53
2023-03-14T16:59:22.616Z,5.30
2023-03-14T17:02:30.694Z,5.10
2023-03-14T17:05:39.473Z,4.23
2023-03-14T17:08:55.467Z,3.80
2023-03-14T17:12:02.590Z,5.17
2023-03-14T17:15:11.358Z,3.90
2023-03-14T17:18:20.354Z,4.17
2023-03-14T17:21:30.220Z,3.60
2023-03-14T17:24:42.155Z,3.67
2023-03-14T17:27:48.511Z,4.00
2023-03-14T17:31:04.006Z,3.60
2023-03-14T17:34:09.583Z,3.80
2023-03-14T17:37:18.340Z,3.37
2023-03-14T17:40:28.442Z,3.40
2023-03-14T17:43:37.080Z,4.33
2023-03-14T17:46:44.678Z,3.23
2023-03-14T17:49:52.222Z,3.23
2023-03-14T17:53:00.036Z,2.97
2023-03-14T17:56:05.894Z,3.80
2023-03-14T17:59:14.150Z,3.00
2023-03-14T18:02:22.436Z,3.10
2023-03-14T18:05:30.113Z,3.87
2023-03-14T18:08:34.220Z,4.73
2023-03-14T18:11:42.911Z,3.40
2023-03-14T18:14:46.232Z,3.70
2023-03-14T18:17:49.528Z,3.40
2023-03-14T18:20:54.813Z,3.10
2023-03-14T18:23:58.068Z,3.80
2023-03-14T18:27:05.824Z,3.53
2023-03-14T18:30:15.564Z,4.23
2023-03-14T18:33:22.488Z,2.93
2023-03-14T18:36:29.137Z,2.90
2023-03-14T18:39:35.260Z,3.53
2023-03-14T18:42:44.213Z,2.87
2023-03-14T18:45:50.278Z,3.30
2023-03-14T18:48:59.443Z,3.40
2023-03-14T18:52:06.642Z,3.40
2023-03-14T18:55:17.118Z,3.80
2023-03-14T18:58:29.318Z,3.67
2023-03-14T19:01:35.089Z,4.20
2023-03-14T19:04:41.585Z,4.07
2023-03-14T19:07:52.530Z,3.93
2023-03-14T19:11:01.105Z,4.30
2023-03-14T19:14:14.510Z,12.03
2023-03-14T19:17:22.276Z,3.37
2023-03-14T19:20:30.692Z,3.50
2023-03-14T19:23:40.617Z,5.10
2023-03-14T19:26:46.588Z,6.50
2023-03-14T19:29:52.780Z,4.40
2023-03-14T19:32:56.054Z,4.60
2023-03-14T19:36:05.209Z,4.40
2023-03-14T19:39:09.659Z,4.43
2023-03-14T19:42:14.522Z,4.60
2023-03-14T19:45:24.374Z,4.87
2023-03-14T19:48:30.821Z,5.73
2023-03-14T19:51:37.357Z,5.60
2023-03-14T19:54:43.380Z,5.93
2023-03-14T19:57:49.891Z,6.13
2023-03-14T20:01:00.858Z,5.40
2023-03-14T20:04:08.346Z,6.00
2023-03-14T20:07:14.463Z,6.03
2023-03-14T20:10:23.607Z,5.93
2023-03-14T20:13:31.951Z,7.23
2023-03-14T20:16:40.976Z,7.30
2023-03-14T20:19:46.253Z,7.30
2023-03-14T20:22:52.589Z,6.33
2023-03-14T20:26:00.948Z,7.20
2023-03-14T20:29:07.073Z,6.80
2023-03-14T20:32:17.591Z,7.07
2023-03-14T20:35:27.173Z,6.80
2023-03-14T20:38:33.473Z,7.50
2023-03-14T20:41:43.715Z,7.57
2023-03-14T20:44:51.312Z,7.80
2023-03-14T20:47:55.905Z,7.77
2023-03-14T20:50:59.482Z,7.40
2023-03-14T20:54:05.407Z,7.83
2023-03-14T20:57:11.268Z,7.93
2023-03-14T21:00:20.845Z,7.87
2023-03-14T21:03:26.937Z,7.90
2023-03-14T21:06:36.452Z,7.80
2023-03-14T21:09:40.517Z,10.70
2023-03-14T21:12:48.300Z,11.10
2023-03-14T21:15:52.152Z,12.10
2023-03-14T21:18:56.808Z,12.80
2023-03-14T21:22:00.955Z,11.13
2023-03-14T21:25:04.347Z,16.93
2023-03-14T21:28:07.965Z,12.80
2023-03-14T21:31:13.089Z,12.70
2023-03-14T21:34:21.155Z,16.73
2023-03-14T21:37:27.587Z,14.20
2023-03-14T21:40:30.857Z,14.50
2023-03-14T21:43:34.247Z,13.77
2023-03-14T21:46:49.501Z,15.27
2023-03-14T21:49:57.803Z,15.83
2023-03-14T21:53:13.288Z,14.97
2023-03-14T21:56:17.639Z,14.50
2023-03-14T21:59:30.639Z,16.40
2023-03-14T22:02:44.033Z,11.37
2023-03-14T22:05:57.808Z,11.90
2023-03-14T22:09:04.160Z,12.50
2023-03-14T22:12:07.990Z,11.70
2023-03-14T22:15:12.883Z,11.70
2023-03-14T22:18:17.109Z,12.13
2023-03-14T22:21:26.331Z,11.97
2023-03-14T22:24:37.603Z,11.07
2023-03-14T22:27:47.468Z,11.30
2023-03-14T22:30:57.787Z,11.30
2023-03-14T22:34:02.814Z,11.30
2023-03-14T22:37:12.251Z,13.47
2023-03-14T22:40:18.049Z,11.10
2023-03-14T22:43:21.625Z,13.07
2023-03-14T22:46:32.431Z,11.27
2023-03-14T22:49:44.023Z,11.00
2023-03-14T22:52:57.018Z,10.43
2023-03-14T22:56:04.099Z,10.50
2023-03-14T22:59:15.295Z,11.13
2023-03-14T23:02:18.664Z,11.70
2023-03-14T23:05:34.348Z,15.00
2023-03-14T23:08:43.025Z,12.37
2023-03-14T23:11:55.281Z,12.03
2023-03-14T23:15:02.130Z,13.47
2023-03-14T23:18:10.672Z,12.80
2023-03-14T23:21:23.539Z,15.07
2023-03-14T23:24:35.746Z,14.37
2023-03-14T23:27:45.461Z,12.73
2023-03-14T23:30:55.322Z,13.80
2023-03-14T23:34:05.974Z,14.00
2023-03-14T23:37:16.770Z,13.23
2023-03-14T23:40:22.099Z,14.30
2023-03-14T23:43:27.791Z,13.97
2023-03-14T23:46:34.353Z,14.30
2023-03-14T23:49:38.278Z,13.77
2023-03-14T23:52:42.341Z,13.00
2023-03-14T23:55:48.043Z,13.80
2023-03-14T23:58:56.266Z,12.10
